Ashuelot, New Hampshire
Current Conditions -  °F | °C
As of 9:15 PM on Monday 22 Dec 2014 (Local Time) from KEEN Reporting Station
Overcast Overcast  
Wind Chill: 32°   Ceiling: 1400
Heat Index: 36°   Visibility: 10mi
Dew Point: 32°   Wind: 5mph
Humidity: 87%   Direction: 360°N
Pressure: 30.3"   Gusts: NA
Location:  42.78°N, 72.42°W
Report Text: KEEN 230215Z AUTO 36004KT 10SM BKN014 OVC046 02/00 A3030 RMK AO1
Loading
Personal Weather Stations






























Interactive Weather Map New forecast layout! Learn more

10-Day Weather Forecast

Advertisements
Track Severe Weather on mobile